sensor_id;sensor_type;location;lat;lon;timestamp;pressure;altitude;pressure_sealevel;temperature;humidity
13367;BME280;6752;52.612;13.630;2024-01-30T00:03:12;102311.94;;;2.68;95.01
13367;BME280;6752;52.612;13.630;2024-01-30T00:08:14;102302.84;;;2.58;95.73
13367;BME280;6752;52.612;13.630;2024-01-30T00:13:16;102306.29;;;2.55;96.43
13367;BME280;6752;52.612;13.630;2024-01-30T00:18:19;102309.08;;;2.49;96.60
13367;BME280;6752;52.612;13.630;2024-01-30T00:23:21;102310.03;;;2.53;96.75
13367;BME280;6752;52.612;13.630;2024-01-30T00:28:23;102312.78;;;2.42;97.12
13367;BME280;6752;52.612;13.630;2024-01-30T00:33:26;102310.24;;;2.29;98.01
13367;BME280;6752;52.612;13.630;2024-01-30T00:38:28;102311.14;;;2.40;97.79
13367;BME280;6752;52.612;13.630;2024-01-30T00:43:30;102308.78;;;2.47;98.51
13367;BME280;6752;52.612;13.630;2024-01-30T00:48:33;102309.61;;;2.21;98.66
13367;BME280;6752;52.612;13.630;2024-01-30T00:53:35;102308.27;;;2.21;99.25
13367;BME280;6752;52.612;13.630;2024-01-30T00:58:37;102307.25;;;2.27;99.63
13367;BME280;6752;52.612;13.630;2024-01-30T01:03:40;102306.20;;;2.29;99.37
13367;BME280;6752;52.612;13.630;2024-01-30T01:08:42;102309.09;;;2.27;100.00
13367;BME280;6752;52.612;13.630;2024-01-30T01:13:44;102304.13;;;2.17;100.00
13367;BME280;6752;52.612;13.630;2024-01-30T01:18:47;102309.45;;;2.28;100.00
13367;BME280;6752;52.612;13.630;2024-01-30T01:23:49;102298.78;;;2.22;100.00
13367;BME280;6752;52.612;13.630;2024-01-30T01:28:52;102300.19;;;2.21;100.00
13367;BME280;6752;52.612;13.630;2024-01-30T01:33:54;102289.92;;;2.20;100.00
13367;BME280;6752;52.612;13.630;2024-01-30T01:38:56;102296.81;;;2.02;100.00
13367;BME280;6752;52.612;13.630;2024-01-30T01:43:59;102294.55;;;2.24;100.00
13367;BME280;6752;52.612;13.630;2024-01-30T01:49:08;102283.51;;;2.11;100.00
13367;BME280;6752;52.612;13.630;2024-01-30T01:54:06;102292.50;;;2.16;100.00
13367;BME280;6752;52.612;13.630;2024-01-30T01:59:08;102287.89;;;2.02;100.00
13367;BME280;6752;52.612;13.630;2024-01-30T02:04:11;102298.00;;;1.93;100.00
13367;BME280;6752;52.612;13.630;2024-01-30T02:09:13;102293.58;;;1.98;100.00
13367;BME280;6752;52.612;13.630;2024-01-30T02:14:16;102297.21;;;1.92;100.00
13367;BME280;6752;52.612;13.630;2024-01-30T02:19:18;102304.06;;;1.90;100.00
13367;BME280;6752;52.612;13.630;2024-01-30T02:24:20;102296.95;;;1.84;100.00
13367;BME280;6752;52.612;13.630;2024-01-30T02:29:23;102293.75;;;1.74;100.00
13367;BME280;6752;52.612;13.630;2024-01-30T02:34:25;102287.84;;;1.85;100.00
13367;BME280;6752;52.612;13.630;2024-01-30T02:39:27;102279.31;;;1.80;100.00
13367;BME280;6752;52.612;13.630;2024-01-30T02:44:30;102278.80;;;1.87;100.00
13367;BME280;6752;52.612;13.630;2024-01-30T02:49:32;102279.11;;;1.83;100.00
13367;BME280;6752;52.612;13.630;2024-01-30T02:54:34;102284.97;;;1.88;100.00
13367;BME280;6752;52.612;13.630;2024-01-30T02:59:37;102276.34;;;2.00;100.00
13367;BME280;6752;52.612;13.630;2024-01-30T03:04:42;102278.14;;;1.84;100.00
13367;BME280;6752;52.612;13.630;2024-01-30T03:09:44;102269.22;;;1.83;100.00
13367;BME280;6752;52.612;13.630;2024-01-30T03:14:46;102262.60;;;1.87;100.00
13367;BME280;6752;52.612;13.630;2024-01-30T03:19:49;102256.80;;;1.87;100.00
13367;BME280;6752;52.612;13.630;2024-01-30T03:24:51;102256.17;;;1.89;100.00
13367;BME280;6752;52.612;13.630;2024-01-30T03:29:53;102255.36;;;1.77;100.00
13367;BME280;6752;52.612;13.630;2024-01-30T03:34:56;102264.52;;;1.80;100.00
13367;BME280;6752;52.612;13.630;2024-01-30T03:39:58;102262.36;;;1.69;100.00
13367;BME280;6752;52.612;13.630;2024-01-30T03:45:01;102255.64;;;1.69;100.00
13367;BME280;6752;52.612;13.630;2024-01-30T03:50:03;102256.69;;;1.50;100.00
13367;BME280;6752;52.612;13.630;2024-01-30T03:55:05;102256.34;;;1.65;100.00
13367;BME280;6752;52.612;13.630;2024-01-30T04:00:08;102253.56;;;1.56;100.00
13367;BME280;6752;52.612;13.630;2024-01-30T04:05:10;102254.29;;;1.58;100.00
13367;BME280;6752;52.612;13.630;2024-01-30T04:10:12;102257.74;;;1.43;100.00
13367;BME280;6752;52.612;13.630;2024-01-30T04:15:15;102251.95;;;1.64;100.00
13367;BME280;6752;52.612;13.630;2024-01-30T04:20:17;102250.92;;;1.60;100.00
13367;BME280;6752;52.612;13.630;2024-01-30T04:25:19;102257.04;;;1.57;100.00
13367;BME280;6752;52.612;13.630;2024-01-30T04:30:22;102267.85;;;1.56;100.00
13367;BME280;6752;52.612;13.630;2024-01-30T04:35:24;102261.45;;;1.47;100.00
13367;BME280;6752;52.612;13.630;2024-01-30T04:40:26;102254.11;;;1.54;100.00
13367;BME280;6752;52.612;13.630;2024-01-30T04:45:29;102252.23;;;1.50;100.00
13367;BME280;6752;52.612;13.630;2024-01-30T04:50:32;102245.21;;;1.48;100.00
13367;BME280;6752;52.612;13.630;2024-01-30T04:55:35;102245.95;;;1.45;100.00
13367;BME280;6752;52.612;13.630;2024-01-30T05:00:38;102243.99;;;1.47;100.00
13367;BME280;6752;52.612;13.630;2024-01-30T05:05:40;102245.52;;;1.44;100.00
13367;BME280;6752;52.612;13.630;2024-01-30T05:10:43;102247.91;;;1.43;100.00
13367;BME280;6752;52.612;13.630;2024-01-30T05:15:45;102234.57;;;1.52;100.00
13367;BME280;6752;52.612;13.630;2024-01-30T05:20:47;102233.64;;;1.69;100.00
13367;BME280;6752;52.612;13.630;2024-01-30T05:25:50;102243.16;;;1.62;100.00
13367;BME280;6752;52.612;13.630;2024-01-30T05:30:52;102237.84;;;1.73;100.00
13367;BME280;6752;52.612;13.630;2024-01-30T05:35:54;102232.47;;;1.73;100.00
13367;BME280;6752;52.612;13.630;2024-01-30T05:40:57;102233.31;;;1.73;100.00
13367;BME280;6752;52.612;13.630;2024-01-30T05:46:02;102235.05;;;1.68;100.00
13367;BME280;6752;52.612;13.630;2024-01-30T05:51:04;102230.33;;;1.71;100.00
13367;BME280;6752;52.612;13.630;2024-01-30T05:56:07;102233.02;;;1.71;100.00
13367;BME280;6752;52.612;13.630;2024-01-30T06:01:09;102228.34;;;1.79;100.00
13367;BME280;6752;52.612;13.630;2024-01-30T06:06:11;102239.30;;;1.77;100.00
13367;BME280;6752;52.612;13.630;2024-01-30T06:11:14;102234.47;;;1.75;100.00
13367;BME280;6752;52.612;13.630;2024-01-30T06:16:16;102228.37;;;1.73;100.00
13367;BME280;6752;52.612;13.630;2024-01-30T06:21:18;102227.09;;;1.73;100.00
13367;BME280;6752;52.612;13.630;2024-01-30T06:26:21;102230.95;;;1.85;100.00
13367;BME280;6752;52.612;13.630;2024-01-30T06:31:23;102225.95;;;1.81;100.00
13367;BME280;6752;52.612;13.630;2024-01-30T06:36:25;102229.10;;;1.97;100.00
13367;BME280;6752;52.612;13.630;2024-01-30T06:41:28;102219.09;;;1.93;100.00
13367;BME280;6752;52.612;13.630;2024-01-30T06:46:30;102224.17;;;1.92;100.00
13367;BME280;6752;52.612;13.630;2024-01-30T06:51:33;102230.03;;;2.07;100.00
13367;BME280;6752;52.612;13.630;2024-01-30T06:56:35;102225.30;;;1.99;100.00
13367;BME280;6752;52.612;13.630;2024-01-30T07:01:37;102235.03;;;1.96;100.00
13367;BME280;6752;52.612;13.630;2024-01-30T07:06:40;102233.80;;;2.00;100.00
13367;BME280;6752;52.612;13.630;2024-01-30T07:11:42;102231.06;;;1.95;100.00
13367;BME280;6752;52.612;13.630;2024-01-30T07:16:44;102221.16;;;1.95;100.00
13367;BME280;6752;52.612;13.630;2024-01-30T07:21:47;102221.82;;;1.98;100.00
13367;BME280;6752;52.612;13.630;2024-01-30T07:26:49;102222.34;;;2.03;100.00
13367;BME280;6752;52.612;13.630;2024-01-30T07:31:51;102219.38;;;2.27;100.00
13367;BME280;6752;52.612;13.630;2024-01-30T07:36:54;102228.47;;;2.21;100.00
13367;BME280;6752;52.612;13.630;2024-01-30T07:41:56;102221.02;;;2.29;100.00
13367;BME280;6752;52.612;13.630;2024-01-30T07:46:59;102213.96;;;2.33;100.00
13367;BME280;6752;52.612;13.630;2024-01-30T07:52:01;102216.64;;;2.49;100.00
13367;BME280;6752;52.612;13.630;2024-01-30T07:57:03;102205.72;;;2.66;100.00
13367;BME280;6752;52.612;13.630;2024-01-30T08:02:06;102204.08;;;2.80;100.00
13367;BME280;6752;52.612;13.630;2024-01-30T08:07:08;102197.84;;;2.79;100.00
13367;BME280;6752;52.612;13.630;2024-01-30T08:12:10;102207.83;;;2.88;100.00
13367;BME280;6752;52.612;13.630;2024-01-30T08:17:13;102198.88;;;3.03;100.00
13367;BME280;6752;52.612;13.630;2024-01-30T08:22:15;102193.91;;;3.14;100.00
13367;BME280;6752;52.612;13.630;2024-01-30T08:27:17;102197.69;;;3.22;100.00
13367;BME280;6752;52.612;13.630;2024-01-30T08:32:20;102199.09;;;3.31;100.00
13367;BME280;6752;52.612;13.630;2024-01-30T08:37:22;102184.66;;;3.47;100.00
13367;BME280;6752;52.612;13.630;2024-01-30T08:42:25;102191.16;;;3.35;100.00
13367;BME280;6752;52.612;13.630;2024-01-30T08:47:27;102180.69;;;3.51;100.00
13367;BME280;6752;52.612;13.630;2024-01-30T08:52:29;102180.58;;;3.57;100.00
13367;BME280;6752;52.612;13.630;2024-01-30T08:57:32;102184.28;;;3.66;100.00
13367;BME280;6752;52.612;13.630;2024-01-30T09:02:34;102184.31;;;3.90;100.00
13367;BME280;6752;52.612;13.630;2024-01-30T09:07:36;102173.67;;;4.08;100.00
13367;BME280;6752;52.612;13.630;2024-01-30T09:12:39;102180.27;;;4.14;100.00
13367;BME280;6752;52.612;13.630;2024-01-30T09:17:41;102185.38;;;4.51;100.00
13367;BME280;6752;52.612;13.630;2024-01-30T09:22:43;102181.47;;;4.78;100.00
13367;BME280;6752;52.612;13.630;2024-01-30T09:27:46;102182.56;;;4.62;99.64
13367;BME280;6752;52.612;13.630;2024-01-30T09:32:48;102181.54;;;5.01;99.39
13367;BME280;6752;52.612;13.630;2024-01-30T09:37:51;102173.14;;;4.80;98.19
13367;BME280;6752;52.612;13.630;2024-01-30T09:42:53;102166.55;;;5.11;97.24
13367;BME280;6752;52.612;13.630;2024-01-30T09:47:55;102172.43;;;5.15;95.57
13367;BME280;6752;52.612;13.630;2024-01-30T09:52:58;102171.16;;;5.47;93.81
13367;BME280;6752;52.612;13.630;2024-01-30T09:58:00;102166.52;;;5.66;92.60
13367;BME280;6752;52.612;13.630;2024-01-30T10:03:03;102160.45;;;5.68;90.59
13367;BME280;6752;52.612;13.630;2024-01-30T10:08:08;102157.16;;;6.05;90.12
13367;BME280;6752;52.612;13.630;2024-01-30T10:13:10;102157.92;;;6.07;88.58
13367;BME280;6752;52.612;13.630;2024-01-30T10:18:12;102147.82;;;6.13;87.15
13367;BME280;6752;52.612;13.630;2024-01-30T10:23:15;102140.77;;;6.29;85.52
13367;BME280;6752;52.612;13.630;2024-01-30T10:28:17;102136.36;;;6.50;83.70
13367;BME280;6752;52.612;13.630;2024-01-30T10:33:19;102132.52;;;6.43;83.32
13367;BME280;6752;52.612;13.630;2024-01-30T10:38:22;102127.27;;;6.59;82.31
13367;BME280;6752;52.612;13.630;2024-01-30T10:43:40;102123.59;;;6.81;81.27
13367;BME280;6752;52.612;13.630;2024-01-30T10:48:29;102117.86;;;7.05;80.47
13367;BME280;6752;52.612;13.630;2024-01-30T10:53:32;102108.01;;;7.38;80.00
13367;BME280;6752;52.612;13.630;2024-01-30T10:58:34;102112.50;;;7.38;79.57
13367;BME280;6752;52.612;13.630;2024-01-30T11:03:36;102103.27;;;7.44;78.24
13367;BME280;6752;52.612;13.630;2024-01-30T11:08:39;102107.22;;;7.74;77.35
13367;BME280;6752;52.612;13.630;2024-01-30T11:13:41;102100.80;;;7.91;75.39
13367;BME280;6752;52.612;13.630;2024-01-30T11:18:43;102094.86;;;8.12;75.28
13367;BME280;6752;52.612;13.630;2024-01-30T11:23:46;102085.44;;;8.15;73.93
13367;BME280;6752;52.612;13.630;2024-01-30T11:28:52;102090.95;;;8.15;73.44
13367;BME280;6752;52.612;13.630;2024-01-30T11:33:52;102078.83;;;8.10;72.63
13367;BME280;6752;52.612;13.630;2024-01-30T11:38:53;102073.70;;;8.23;72.28
13367;BME280;6752;52.612;13.630;2024-01-30T11:43:55;102077.98;;;8.34;71.43
13367;BME280;6752;52.612;13.630;2024-01-30T11:48:57;102078.48;;;8.13;71.65
13367;BME280;6752;52.612;13.630;2024-01-30T11:54:00;102073.72;;;8.15;70.59
13367;BME280;6752;52.612;13.630;2024-01-30T11:59:02;102071.25;;;8.33;71.23
13367;BME280;6752;52.612;13.630;2024-01-30T12:04:04;102070.58;;;8.39;70.04
13367;BME280;6752;52.612;13.630;2024-01-30T12:09:07;102058.75;;;8.48;69.76
13367;BME280;6752;52.612;13.630;2024-01-30T12:14:09;102053.78;;;8.67;69.36
13367;BME280;6752;52.612;13.630;2024-01-30T12:19:20;102044.58;;;8.53;69.20
13367;BME280;6752;52.612;13.630;2024-01-30T12:24:14;102042.72;;;8.77;68.27
13367;BME280;6752;52.612;13.630;2024-01-30T12:29:16;102034.05;;;8.78;67.45
13367;BME280;6752;52.612;13.630;2024-01-30T12:34:19;102027.41;;;9.00;67.36
13367;BME280;6752;52.612;13.630;2024-01-30T12:39:21;102018.00;;;8.91;67.76
13367;BME280;6752;52.612;13.630;2024-01-30T12:44:23;102019.73;;;8.84;67.81
13367;BME280;6752;52.612;13.630;2024-01-30T12:49:26;102011.20;;;8.91;67.46
13367;BME280;6752;52.612;13.630;2024-01-30T12:54:28;102005.34;;;8.90;68.15
13367;BME280;6752;52.612;13.630;2024-01-30T12:59:30;102011.09;;;9.00;68.39
13367;BME280;6752;52.612;13.630;2024-01-30T13:04:33;102002.57;;;9.03;68.51
13367;BME280;6752;52.612;13.630;2024-01-30T13:09:35;102002.17;;;8.75;69.21
13367;BME280;6752;52.612;13.630;2024-01-30T13:14:37;102005.23;;;8.80;69.32
13367;BME280;6752;52.612;13.630;2024-01-30T13:19:40;102008.97;;;8.94;69.50
13367;BME280;6752;52.612;13.630;2024-01-30T13:24:42;101996.54;;;8.84;69.47
13367;BME280;6752;52.612;13.630;2024-01-30T13:29:44;102000.14;;;8.92;70.34
13367;BME280;6752;52.612;13.630;2024-01-30T13:34:47;101988.94;;;8.91;70.94
13367;BME280;6752;52.612;13.630;2024-01-30T13:39:49;101981.41;;;8.86;71.70
13367;BME280;6752;52.612;13.630;2024-01-30T13:44:51;101980.95;;;8.70;72.67
13367;BME280;6752;52.612;13.630;2024-01-30T13:49:54;101981.66;;;9.03;73.54
13367;BME280;6752;52.612;13.630;2024-01-30T13:54:56;101987.55;;;9.11;73.29
13367;BME280;6752;52.612;13.630;2024-01-30T13:59:59;102001.27;;;9.17;73.30
13367;BME280;6752;52.612;13.630;2024-01-30T14:05:01;101999.00;;;9.02;73.45
13367;BME280;6752;52.612;13.630;2024-01-30T14:10:03;101996.54;;;8.84;75.07
13367;BME280;6752;52.612;13.630;2024-01-30T14:15:07;101983.49;;;8.91;75.99
13367;BME280;6752;52.612;13.630;2024-01-30T14:20:08;101990.68;;;8.84;76.90
13367;BME280;6752;52.612;13.630;2024-01-30T14:25:10;101995.87;;;8.63;77.20
13367;BME280;6752;52.612;13.630;2024-01-30T14:30:13;101990.86;;;8.63;77.32
13367;BME280;6752;52.612;13.630;2024-01-30T14:35:15;101989.28;;;8.49;78.48
13367;BME280;6752;52.612;13.630;2024-01-30T14:40:18;101979.52;;;8.71;78.37
13367;BME280;6752;52.612;13.630;2024-01-30T14:45:20;101977.28;;;8.59;78.41
13367;BME280;6752;52.612;13.630;2024-01-30T14:50:22;101984.75;;;8.61;78.30
13367;BME280;6752;52.612;13.630;2024-01-30T14:55:24;101989.09;;;8.59;79.04
13367;BME280;6752;52.612;13.630;2024-01-30T15:00:27;101984.87;;;8.48;80.11
13367;BME280;6752;52.612;13.630;2024-01-30T15:05:29;101981.04;;;8.50;80.42
13367;BME280;6752;52.612;13.630;2024-01-30T15:10:32;101994.09;;;8.39;80.73
13367;BME280;6752;52.612;13.630;2024-01-30T15:15:34;101980.16;;;8.26;81.77
13367;BME280;6752;52.612;13.630;2024-01-30T15:20:36;101988.17;;;8.15;82.94
13367;BME280;6752;52.612;13.630;2024-01-30T15:25:39;101998.38;;;8.09;84.05
13367;BME280;6752;52.612;13.630;2024-01-30T15:30:41;102005.06;;;8.14;84.40
13367;BME280;6752;52.612;13.630;2024-01-30T15:35:43;102004.92;;;7.91;85.38
13367;BME280;6752;52.612;13.630;2024-01-30T15:40:46;102005.95;;;7.86;86.17
13367;BME280;6752;52.612;13.630;2024-01-30T15:45:49;102007.64;;;7.91;87.06
13367;BME280;6752;52.612;13.630;2024-01-30T15:50:50;102014.69;;;7.84;86.86
13367;BME280;6752;52.612;13.630;2024-01-30T15:55:53;102017.22;;;7.78;87.43
13367;BME280;6752;52.612;13.630;2024-01-30T16:00:55;102026.72;;;7.74;87.78
13367;BME280;6752;52.612;13.630;2024-01-30T16:05:58;102016.89;;;7.69;88.35
13367;BME280;6752;52.612;13.630;2024-01-30T16:11:00;102013.08;;;7.62;88.45
13367;BME280;6752;52.612;13.630;2024-01-30T16:16:02;102011.55;;;7.68;88.40
13367;BME280;6752;52.612;13.630;2024-01-30T16:21:05;102014.25;;;7.35;89.56
13367;BME280;6752;52.612;13.630;2024-01-30T16:26:07;102014.16;;;7.40;89.85
13367;BME280;6752;52.612;13.630;2024-01-30T16:31:09;102010.86;;;7.33;90.54
13367;BME280;6752;52.612;13.630;2024-01-30T16:36:12;102008.11;;;7.25;90.78
13367;BME280;6752;52.612;13.630;2024-01-30T16:41:14;102013.02;;;7.30;91.24
13367;BME280;6752;52.612;13.630;2024-01-30T16:46:16;102021.41;;;7.19;91.83
13367;BME280;6752;52.612;13.630;2024-01-30T16:51:19;102028.62;;;7.24;91.84
13367;BME280;6752;52.612;13.630;2024-01-30T16:56:21;102026.16;;;7.21;92.34
13367;BME280;6752;52.612;13.630;2024-01-30T17:01:24;102032.27;;;7.32;92.52
13367;BME280;6752;52.612;13.630;2024-01-30T17:06:26;102035.31;;;7.20;93.00
13367;BME280;6752;52.612;13.630;2024-01-30T17:11:28;102037.27;;;7.23;93.67
13367;BME280;6752;52.612;13.630;2024-01-30T17:16:31;102028.19;;;7.19;93.83
13367;BME280;6752;52.612;13.630;2024-01-30T17:21:33;102033.87;;;7.17;94.37
13367;BME280;6752;52.612;13.630;2024-01-30T17:26:35;102027.75;;;7.11;94.90
13367;BME280;6752;52.612;13.630;2024-01-30T17:31:38;102033.09;;;7.12;95.26
13367;BME280;6752;52.612;13.630;2024-01-30T17:36:40;102027.26;;;7.20;95.31
13367;BME280;6752;52.612;13.630;2024-01-30T17:41:42;102030.05;;;7.15;96.34
13367;BME280;6752;52.612;13.630;2024-01-30T17:46:45;102029.03;;;7.12;96.78
13367;BME280;6752;52.612;13.630;2024-01-30T17:51:47;102040.34;;;7.07;97.15
13367;BME280;6752;52.612;13.630;2024-01-30T17:56:50;102042.52;;;7.21;97.47
13367;BME280;6752;52.612;13.630;2024-01-30T18:01:52;102050.17;;;7.08;98.03
13367;BME280;6752;52.612;13.630;2024-01-30T18:06:54;102054.20;;;7.17;97.82
13367;BME280;6752;52.612;13.630;2024-01-30T18:11:57;102061.23;;;7.11;98.11
13367;BME280;6752;52.612;13.630;2024-01-30T18:16:59;102062.77;;;7.21;98.29
13367;BME280;6752;52.612;13.630;2024-01-30T18:22:01;102054.13;;;7.22;99.08
13367;BME280;6752;52.612;13.630;2024-01-30T18:27:04;102053.20;;;7.26;98.01
13367;BME280;6752;52.612;13.630;2024-01-30T18:32:06;102056.25;;;7.23;98.43
13367;BME280;6752;52.612;13.630;2024-01-30T18:37:08;102062.69;;;7.26;98.17
13367;BME280;6752;52.612;13.630;2024-01-30T18:42:11;102064.13;;;7.21;98.40
13367;BME280;6752;52.612;13.630;2024-01-30T18:47:13;102075.08;;;7.33;98.59
13367;BME280;6752;52.612;13.630;2024-01-30T18:52:15;102086.94;;;7.28;98.95
13367;BME280;6752;52.612;13.630;2024-01-30T18:57:18;102087.53;;;7.27;99.95
13367;BME280;6752;52.612;13.630;2024-01-30T19:02:20;102079.98;;;7.25;100.00
13367;BME280;6752;52.612;13.630;2024-01-30T19:07:23;102085.03;;;7.37;100.00
13367;BME280;6752;52.612;13.630;2024-01-30T19:12:25;102084.44;;;7.38;100.00
13367;BME280;6752;52.612;13.630;2024-01-30T19:17:27;102090.80;;;7.42;100.00
13367;BME280;6752;52.612;13.630;2024-01-30T19:22:30;102085.11;;;7.36;100.00
13367;BME280;6752;52.612;13.630;2024-01-30T19:27:32;102086.05;;;7.36;100.00
13367;BME280;6752;52.612;13.630;2024-01-30T19:32:35;102081.52;;;7.57;100.00
13367;BME280;6752;52.612;13.630;2024-01-30T19:37:37;102071.42;;;7.58;100.00
13367;BME280;6752;52.612;13.630;2024-01-30T19:42:39;102078.47;;;7.64;100.00
13367;BME280;6752;52.612;13.630;2024-01-30T19:47:42;102067.07;;;7.57;100.00
13367;BME280;6752;52.612;13.630;2024-01-30T19:52:44;102073.23;;;7.83;100.00
13367;BME280;6752;52.612;13.630;2024-01-30T19:57:46;102074.98;;;7.71;100.00
13367;BME280;6752;52.612;13.630;2024-01-30T20:02:49;102072.78;;;7.75;100.00
13367;BME280;6752;52.612;13.630;2024-01-30T20:07:51;102072.89;;;7.86;100.00
13367;BME280;6752;52.612;13.630;2024-01-30T20:12:53;102069.23;;;7.94;100.00
13367;BME280;6752;52.612;13.630;2024-01-30T20:17:56;102064.64;;;7.99;100.00
13367;BME280;6752;52.612;13.630;2024-01-30T20:22:58;102074.67;;;8.07;100.00
13367;BME280;6752;52.612;13.630;2024-01-30T20:28:00;102062.61;;;7.97;100.00
13367;BME280;6752;52.612;13.630;2024-01-30T20:33:03;102067.88;;;7.86;100.00
13367;BME280;6752;52.612;13.630;2024-01-30T20:38:05;102067.13;;;7.81;100.00
13367;BME280;6752;52.612;13.630;2024-01-30T20:43:08;102073.84;;;7.48;100.00
13367;BME280;6752;52.612;13.630;2024-01-30T20:48:10;102081.73;;;7.47;100.00
13367;BME280;6752;52.612;13.630;2024-01-30T20:53:12;102081.37;;;7.33;100.00
13367;BME280;6752;52.612;13.630;2024-01-30T20:58:15;102076.98;;;7.49;100.00
13367;BME280;6752;52.612;13.630;2024-01-30T21:03:17;102086.05;;;7.36;100.00
13367;BME280;6752;52.612;13.630;2024-01-30T21:08:19;102087.23;;;7.34;100.00
13367;BME280;6752;52.612;13.630;2024-01-30T21:13:22;102095.59;;;7.31;100.00
13367;BME280;6752;52.612;13.630;2024-01-30T21:18:24;102086.94;;;7.28;100.00
13367;BME280;6752;52.612;13.630;2024-01-30T21:23:26;102086.16;;;7.18;100.00
13367;BME280;6752;52.612;13.630;2024-01-30T21:28:33;102083.00;;;7.10;100.00
13367;BME280;6752;52.612;13.630;2024-01-30T21:33:31;102093.88;;;7.22;100.00
13367;BME280;6752;52.612;13.630;2024-01-30T21:38:34;102085.41;;;7.25;100.00
13367;BME280;6752;52.612;13.630;2024-01-30T21:43:36;102091.48;;;7.15;100.00
13367;BME280;6752;52.612;13.630;2024-01-30T21:48:38;102096.48;;;6.94;100.00
13367;BME280;6752;52.612;13.630;2024-01-30T21:53:41;102102.91;;;6.76;100.00
13367;BME280;6752;52.612;13.630;2024-01-30T21:58:43;102106.59;;;6.67;100.00
13367;BME280;6752;52.612;13.630;2024-01-30T22:03:45;102098.45;;;6.84;100.00
13367;BME280;6752;52.612;13.630;2024-01-30T22:08:48;102097.93;;;6.97;100.00
13367;BME280;6752;52.612;13.630;2024-01-30T22:13:50;102094.39;;;7.05;100.00
13367;BME280;6752;52.612;13.630;2024-01-30T22:18:52;102088.44;;;7.18;100.00
13367;BME280;6752;52.612;13.630;2024-01-30T22:23:55;102085.89;;;7.17;100.00
13367;BME280;6752;52.612;13.630;2024-01-30T22:28:57;102089.55;;;7.24;100.00
13367;BME280;6752;52.612;13.630;2024-01-30T22:34:00;102096.23;;;7.13;100.00
13367;BME280;6752;52.612;13.630;2024-01-30T22:39:02;102097.08;;;7.14;100.00
13367;BME280;6752;52.612;13.630;2024-01-30T22:44:04;102100.55;;;7.11;100.00
13367;BME280;6752;52.612;13.630;2024-01-30T22:49:07;102101.14;;;7.43;100.00
13367;BME280;6752;52.612;13.630;2024-01-30T22:54:09;102105.04;;;7.93;100.00
13367;BME280;6752;52.612;13.630;2024-01-30T22:59:11;102098.84;;;8.33;100.00
13367;BME280;6752;52.612;13.630;2024-01-30T23:04:14;102102.67;;;8.44;100.00
13367;BME280;6752;52.612;13.630;2024-01-30T23:09:17;102097.97;;;8.61;100.00
13367;BME280;6752;52.612;13.630;2024-01-30T23:14:19;102110.97;;;8.63;100.00
13367;BME280;6752;52.612;13.630;2024-01-30T23:19:21;102119.28;;;8.65;100.00
13367;BME280;6752;52.612;13.630;2024-01-30T23:24:24;102125.09;;;8.54;100.00
13367;BME280;6752;52.612;13.630;2024-01-30T23:29:26;102130.69;;;8.44;100.00
13367;BME280;6752;52.612;13.630;2024-01-30T23:34:29;102134.59;;;8.46;100.00
13367;BME280;6752;52.612;13.630;2024-01-30T23:39:31;102136.38;;;8.46;100.00
13367;BME280;6752;52.612;13.630;2024-01-30T23:44:33;102135.10;;;8.45;100.00
13367;BME280;6752;52.612;13.630;2024-01-30T23:49:36;102132.22;;;8.43;100.00
13367;BME280;6752;52.612;13.630;2024-01-30T23:54:38;102127.89;;;8.45;100.00
13367;BME280;6752;52.612;13.630;2024-01-30T23:59:40;102123.98;;;8.56;100.00
